Time;durP1;ratioP1;P1;durP2;ratioP2;P2;SDS_P1;SDS_P2;PMS_P1;PMS_P2;Temp;Humidity;BMP_temperature;BMP_pressure;BME280_temperature;BME280_humidity;BME280_pressure;Samples;Min_cycle;Max_cycle;Signal;HPM_P1;HPM_P2
2021/10/13 00:00:27;;;;;;;49.13;27.20;;;;;;;9.09;93.23;99829.06;4925363;29;20043;-92
2021/10/13 00:02:54;;;;;;;32.70;23.77;;;;;;;9.05;92.94;99828.34;4933902;29;20456;-93
2021/10/13 00:05:21;;;;;;;37.70;27.00;;;;;;;9.01;92.99;99823.41;4932471;29;20040;-93
2021/10/13 00:07:48;;;;;;;33.17;26.05;;;;;;;8.82;94.39;99834.72;4931360;29;20056;-93
2021/10/13 00:10:14;;;;;;;32.88;23.23;;;;;;;8.72;95.22;99823.06;4924409;29;20040;-94
2021/10/13 00:12:41;;;;;;;27.58;21.27;;;;;;;8.73;94.13;99822.16;4932609;29;20455;-95
2021/10/13 00:15:11;;;;;;;28.58;20.48;;;;;;;8.77;93.69;99818.50;4938504;29;20051;-94
2021/10/13 00:17:38;;;;;;;27.48;19.88;;;;;;;8.71;93.56;99818.81;4931103;29;20048;-95
2021/10/13 00:20:06;;;;;;;27.25;20.55;;;;;;;8.52;94.69;99815.41;4935542;29;20048;-94
2021/10/13 00:22:33;;;;;;;32.60;21.00;;;;;;;8.49;95.31;99812.97;4933114;29;20058;-94
2021/10/13 00:25:00;;;;;;;22.83;18.25;;;;;;;8.37;96.24;99810.06;4950635;29;20047;-94
2021/10/13 00:27:27;;;;;;;21.88;16.48;;;;;;;8.43;95.72;99810.69;4938358;29;20126;-91
2021/10/13 00:29:54;;;;;;;20.90;17.30;;;;;;;8.48;95.12;99804.34;4927994;29;20546;-92
2021/10/13 00:32:21;;;;;;;22.52;16.60;;;;;;;8.45;94.92;99803.63;4935821;29;20074;-93
2021/10/13 00:34:48;;;;;;;25.92;17.70;;;;;;;8.43;94.90;99800.28;4932760;29;20080;-93
2021/10/13 00:37:15;;;;;;;21.50;13.85;;;;;;;8.53;94.23;99796.34;4932270;29;20043;-93
2021/10/13 00:39:42;;;;;;;19.33;14.38;;;;;;;8.59;93.65;99796.03;4940591;29;20055;-93
2021/10/13 00:42:09;;;;;;;16.55;13.35;;;;;;;8.58;94.06;99786.56;4945902;29;20040;-94
2021/10/13 00:44:36;;;;;;;19.08;14.15;;;;;;;8.55;93.43;99782.34;4936991;29;20072;-94
2021/10/13 00:47:03;;;;;;;18.50;12.95;;;;;;;8.65;93.32;99780.97;4938229;29;20048;-94
2021/10/13 00:49:30;;;;;;;18.83;13.40;;;;;;;8.66;92.59;99771.41;4941807;29;20407;-93
2021/10/13 00:52:00;;;;;;;20.00;13.00;;;;;;;8.60;93.27;99787.31;4940441;29;20035;-95
2021/10/13 00:54:27;;;;;;;18.33;12.88;;;;;;;8.58;93.41;99779.59;4927386;29;20550;-93
2021/10/13 00:56:54;;;;;;;20.65;13.27;;;;;;;8.54;94.26;99782.41;4941029;29;20047;-94
2021/10/13 00:59:20;;;;;;;15.52;11.52;;;;;;;8.55;93.90;99784.09;4939647;29;20043;-92
2021/10/13 01:02:06;;;;;;;16.90;13.10;;;;;;;8.42;93.66;99777.84;4940025;29;20048;-93
2021/10/13 01:04:53;;;;;;;18.58;12.98;;;;;;;8.46;94.42;99780.19;4940129;29;20527;-93
2021/10/13 01:07:36;;;;;;;17.08;12.35;;;;;;;9.09;89.98;99779.66;4939977;29;20103;-93
2021/10/13 01:10:20;;;;;;;16.80;13.10;;;;;;;8.93;90.04;99764.00;4939863;29;20415;-93
2021/10/13 01:12:52;;;;;;;13.40;11.80;;;;;;;8.83;90.87;99768.81;4940190;29;20099;-93
2021/10/13 01:15:32;;;;;;;14.40;11.57;;;;;;;8.69;91.36;99768.69;4939655;29;20483;-93
2021/10/13 01:18:02;;;;;;;15.80;10.88;;;;;;;8.63;92.49;99772.41;4939906;29;20044;-93
2021/10/13 01:20:31;;;;;;;18.60;11.82;;;;;;;8.65;92.40;99767.13;4941094;29;20499;-94
2021/10/13 01:23:20;;;;;;;18.10;11.85;;;;;;;8.43;93.30;99767.34;4939915;29;20047;-94
2021/10/13 01:26:02;;;;;;;14.48;11.90;;;;;;;8.10;94.66;99762.84;4939312;29;20122;-93
2021/10/13 01:28:38;;;;;;;14.60;11.75;;;;;;;8.10;94.65;99757.66;4933645;29;20047;-93
2021/10/13 01:31:15;;;;;;;13.43;10.10;;;;;;;8.13;95.44;99756.66;4939693;29;20095;-94
2021/10/13 01:33:49;;;;;;;15.60;10.65;;;;;;;8.06;96.07;99753.50;4922836;29;20047;-90
2021/10/13 01:36:22;;;;;;;16.10;11.35;;;;;;;8.00;97.04;99760.75;4938459;29;20491;-90
2021/10/13 01:38:52;;;;;;;22.15;12.32;;;;;;;7.99;96.78;99754.72;4938197;29;20078;-90
2021/10/13 01:41:21;;;;;;;14.30;9.75;;;;;;;8.07;96.49;99762.13;4938549;29;20039;-92
2021/10/13 01:43:50;;;;;;;13.90;10.60;;;;;;;8.07;97.01;99762.13;4942387;29;20043;-92
2021/10/13 01:46:21;;;;;;;19.52;12.68;;;;;;;8.24;97.18;99769.97;4938249;29;20095;-91
2021/10/13 01:48:49;;;;;;;17.13;13.48;;;;;;;8.20;97.20;99771.00;4938083;29;20043;-91
2021/10/13 01:51:17;;;;;;;13.10;11.35;;;;;;;8.10;97.93;99767.19;4938345;29;20073;-91
2021/10/13 01:53:44;;;;;;;20.75;11.30;;;;;;;7.99;98.37;99769.44;4938525;29;20048;-92
2021/10/13 01:56:13;;;;;;;16.05;11.13;;;;;;;7.94;98.51;99776.63;4930990;29;20040;-92
2021/10/13 01:58:42;;;;;;;17.33;13.30;;;;;;;8.03;98.73;99778.75;4919832;29;20099;-92
2021/10/13 02:01:11;;;;;;;15.77;13.23;;;;;;;7.99;99.21;99779.81;4938046;29;20063;-91
2021/10/13 02:03:39;;;;;;;15.35;12.18;;;;;;;7.94;99.79;99777.47;4938267;29;20054;-91
2021/10/13 02:06:07;;;;;;;13.35;10.88;;;;;;;7.84;100.00;99777.03;4942873;29;20068;-92
2021/10/13 02:08:37;;;;;;;16.90;10.90;;;;;;;7.75;100.00;99782.63;4938842;29;20051;-92
2021/10/13 02:11:05;;;;;;;19.25;10.80;;;;;;;7.66;100.00;99777.84;4941872;29;20513;-92
2021/10/13 02:13:35;;;;;;;16.98;11.60;;;;;;;7.67;100.00;99792.53;4937324;29;20043;-92
2021/10/13 02:16:03;;;;;;;16.73;11.77;;;;;;;7.65;100.00;99788.31;4921373;29;20087;-92
2021/10/13 02:18:33;;;;;;;16.33;11.75;;;;;;;7.70;100.00;99794.97;4938094;29;20047;-94
2021/10/13 02:21:02;;;;;;;15.73;12.40;;;;;;;7.78;100.00;99797.25;4941279;29;20044;-92
2021/10/13 02:23:33;;;;;;;17.15;11.02;;;;;;;7.82;100.00;99790.97;4938096;29;20102;-93
2021/10/13 02:26:07;;;;;;;14.20;11.60;;;;;;;7.80;100.00;99785.88;4937955;29;20119;-93
2021/10/13 02:28:39;;;;;;;16.02;11.88;;;;;;;7.85;99.98;99780.47;4938925;29;20047;-94
2021/10/13 02:31:06;;;;;;;18.15;11.48;;;;;;;7.93;99.41;99790.47;4938427;29;20051;-93
2021/10/13 02:33:34;;;;;;;14.95;11.95;;;;;;;7.91;99.65;99797.50;4936247;29;20059;-93
2021/10/13 02:36:01;;;;;;;15.50;11.55;;;;;;;7.82;99.96;99794.41;4938945;29;20103;-92
2021/10/13 02:38:29;;;;;;;15.15;11.30;;;;;;;7.67;100.00;99800.31;4930549;29;20095;-91
2021/10/13 02:40:56;;;;;;;17.05;11.60;;;;;;;7.49;100.00;99790.75;4937322;29;20048;-91
2021/10/13 02:43:23;;;;;;;16.48;11.02;;;;;;;7.52;100.00;99790.63;4936805;29;20040;-93
2021/10/13 02:45:56;;;;;;;13.80;11.00;;;;;;;7.55;100.00;99795.66;4938470;29;20043;-93
2021/10/13 02:48:27;;;;;;;16.40;11.65;;;;;;;7.50;100.00;99788.09;4934680;29;20043;-96
2021/10/13 02:51:23;;;;;;;17.52;11.73;;;;;;;7.51;100.00;99796.69;4947458;29;20048;-96
2021/10/13 02:58:36;;;;;;;19.73;13.05;;;;;;;7.46;100.00;99785.72;4955659;29;20073;-96
2021/10/13 03:01:04;;;;;;;16.23;12.18;;;;;;;7.50;100.00;99782.06;4954382;29;20044;-96
2021/10/13 03:03:33;;;;;;;19.98;13.45;;;;;;;7.48;100.00;99782.13;4953546;29;20071;-96
2021/10/13 03:06:02;;;;;;;17.25;13.55;;;;;;;7.52;100.00;99785.44;4943129;29;20040;-96
2021/10/13 03:08:34;;;;;;;19.90;13.55;;;;;;;7.45;100.00;99781.41;4956639;29;20138;-96
2021/10/13 03:11:02;;;;;;;19.70;13.82;;;;;;;7.38;100.00;99780.84;4941093;29;20487;-90
2021/10/13 03:13:36;;;;;;;16.48;13.32;;;;;;;7.37;100.00;99780.94;4936645;29;20391;-90
2021/10/13 03:16:04;;;;;;;23.08;15.43;;;;;;;7.37;100.00;99773.16;4936120;29;20054;-91
2021/10/13 03:18:36;;;;;;;20.40;15.32;;;;;;;7.37;100.00;99773.16;4936282;29;20080;-90
2021/10/13 03:21:04;;;;;;;20.73;14.38;;;;;;;7.35;100.00;99779.25;4936117;29;20396;-92
2021/10/13 03:23:32;;;;;;;25.17;17.73;;;;;;;7.33;100.00;99775.03;4936381;29;20047;-93
2021/10/13 03:26:10;;;;;;;18.02;14.00;;;;;;;7.31;100.00;99782.06;4938000;29;20087;-92
2021/10/13 03:28:39;;;;;;;25.25;16.52;;;;;;;7.29;100.00;99781.25;4936177;29;20047;-92
2021/10/13 03:31:07;;;;;;;18.88;13.95;;;;;;;7.19;100.00;99779.97;4935706;29;20075;-92
2021/10/13 03:33:36;;;;;;;22.63;15.88;;;;;;;7.15;100.00;99770.66;4936454;29;20044;-93
2021/10/13 03:36:08;;;;;;;20.10;16.63;;;;;;;7.15;100.00;99779.28;4937071;29;20391;-92
2021/10/13 03:38:35;;;;;;;19.55;14.45;;;;;;;7.12;100.00;99781.16;4936306;29;20044;-92
2021/10/13 03:41:02;;;;;;;22.55;16.67;;;;;;;7.11;100.00;99785.50;4937262;29;20107;-92
2021/10/13 03:43:28;;;;;;;24.73;16.55;;;;;;;7.11;100.00;99782.91;4940067;29;20438;-93
2021/10/13 03:45:55;;;;;;;23.00;16.75;;;;;;;7.18;100.00;99775.69;4937343;29;20052;-93
2021/10/13 03:48:23;;;;;;;27.63;17.33;;;;;;;7.11;100.00;99780.31;4952180;29;20047;-93
2021/10/13 03:50:50;;;;;;;28.85;18.48;;;;;;;7.08;100.00;99775.25;4936947;29;20067;-92
2021/10/13 03:53:17;;;;;;;20.90;16.08;;;;;;;7.06;100.00;99775.31;4938224;29;20096;-91
2021/10/13 03:55:43;;;;;;;26.40;17.50;;;;;;;7.10;100.00;99768.28;4928045;29;20075;-94
2021/10/13 03:58:10;;;;;;;27.25;17.10;;;;;;;7.22;100.00;99766.88;4942322;29;20111;-93
2021/10/13 04:00:37;;;;;;;24.50;16.27;;;;;;;7.34;100.00;99769.78;4937562;29;20039;-94
2021/10/13 04:03:04;;;;;;;28.73;16.08;;;;;;;7.40;100.00;99771.25;4941867;29;20059;-93
2021/10/13 04:05:31;;;;;;;22.88;16.63;;;;;;;7.41;100.00;99770.38;4947677;29;20099;-96
2021/10/13 04:07:58;;;;;;;20.50;15.55;;;;;;;7.41;100.00;99779.91;4950451;29;20039;-95
2021/10/13 04:10:24;;;;;;;26.55;16.55;;;;;;;7.44;100.00;99777.16;4937241;29;20455;-92
2021/10/13 04:12:51;;;;;;;22.27;15.70;;;;;;;7.42;100.00;99777.22;4937761;29;20051;-93
2021/10/13 04:15:18;;;;;;;20.23;15.90;;;;;;;7.39;100.00;99779.09;4933451;29;20040;-92
2021/10/13 04:17:45;;;;;;;18.15;14.27;;;;;;;7.38;100.00;99774.84;4936836;29;20446;-92
2021/10/13 04:20:12;;;;;;;23.92;15.52;;;;;;;7.38;100.00;99767.91;4918924;29;20050;-92
2021/10/13 04:22:38;;;;;;;21.52;16.02;;;;;;;7.49;100.00;99775.19;4936689;29;20579;-94
2021/10/13 04:25:07;;;;;;;27.67;17.10;;;;;;;7.59;100.00;99781.66;4936699;29;20043;-93
2021/10/13 04:27:34;;;;;;;20.67;15.80;;;;;;;7.80;100.00;99785.88;4936326;29;20032;-92
2021/10/13 04:30:02;;;;;;;20.40;14.90;;;;;;;7.65;100.00;99781.38;4936411;29;20044;-91
2021/10/13 04:32:29;;;;;;;23.30;15.88;;;;;;;7.63;100.00;99784.97;4935177;29;20040;-90
2021/10/13 04:34:56;;;;;;;20.25;15.38;;;;;;;7.80;100.00;99788.47;4935634;29;20127;-90
2021/10/13 04:37:22;;;;;;;19.35;15.27;;;;;;;7.88;100.00;99780.31;4935767;29;20368;-91
2021/10/13 04:39:49;;;;;;;21.90;15.93;;;;;;;7.92;100.00;99778.44;4918274;29;20052;-88
2021/10/13 04:42:16;;;;;;;20.38;15.50;;;;;;;7.92;100.00;99773.25;4934211;29;20168;-85
2021/10/13 04:44:42;;;;;;;18.40;14.65;;;;;;;7.65;100.00;99771.00;4925350;29;20380;-84
2021/10/13 04:47:09;;;;;;;20.17;14.13;;;;;;;7.31;100.00;99767.34;4926549;29;20099;-84
2021/10/13 04:49:36;;;;;;;20.27;13.52;;;;;;;7.16;100.00;99762.81;4934917;29;20451;-85
2021/10/13 04:52:03;;;;;;;18.63;13.85;;;;;;;7.26;100.00;99758.06;4934220;29;20072;-83
2021/10/13 04:54:30;;;;;;;30.42;18.00;;;;;;;7.48;100.00;99758.78;4934190;29;20040;-84
2021/10/13 04:56:56;;;;;;;21.50;16.15;;;;;;;7.51;100.00;99758.66;4934431;29;20502;-86
2021/10/13 04:59:23;;;;;;;25.60;15.40;;;;;;;7.60;100.00;99766.00;4935022;29;20099;-86
2021/10/13 05:01:50;;;;;;;23.20;14.18;;;;;;;7.77;100.00;99769.59;4934298;29;20039;-87
2021/10/13 05:04:17;;;;;;;20.98;15.10;;;;;;;7.77;100.00;99765.25;4924050;29;20103;-87
2021/10/13 05:06:44;;;;;;;26.10;15.18;;;;;;;7.65;100.00;99775.34;4932718;29;20427;-88
2021/10/13 05:09:11;;;;;;;26.40;16.05;;;;;;;7.88;100.00;99777.72;4935384;29;20048;-86
2021/10/13 05:11:38;;;;;;;24.42;16.58;;;;;;;7.96;100.00;99777.38;4916573;29;20036;-86
2021/10/13 05:14:05;;;;;;;24.70;15.95;;;;;;;7.83;100.00;99788.34;4935386;29;20055;-87
2021/10/13 05:16:32;;;;;;;22.75;16.05;;;;;;;7.78;100.00;99797.25;4918674;29;20099;-88
2021/10/13 05:18:59;;;;;;;22.30;15.07;;;;;;;7.77;100.00;99804.16;4935616;29;20495;-88
2021/10/13 05:21:26;;;;;;;24.33;17.98;;;;;;;7.81;100.00;99797.09;4935246;29;20048;-86
2021/10/13 05:23:53;;;;;;;24.45;16.88;;;;;;;7.73;100.00;99810.41;4926085;29;20492;-87
2021/10/13 05:26:21;;;;;;;20.90;16.90;;;;;;;7.71;100.00;99809.63;4929762;29;20075;-86
2021/10/13 05:28:48;;;;;;;24.75;16.45;;;;;;;7.68;100.00;99825.34;4930811;29;20039;-87
2021/10/13 05:31:14;;;;;;;25.13;16.50;;;;;;;7.73;100.00;99818.19;4923945;29;20040;-83
2021/10/13 05:33:41;;;;;;;21.13;16.63;;;;;;;7.83;100.00;99816.88;4925173;29;20044;-84
2021/10/13 05:36:09;;;;;;;25.73;16.60;;;;;;;7.96;100.00;99824.94;4932798;29;20040;-86
2021/10/13 05:38:54;;;;;;;22.95;16.60;;;;;;;8.06;100.00;99838.34;4930042;29;20074;-88
2021/10/13 05:41:21;;;;;;;25.60;17.23;;;;;;;8.19;100.00;99833.41;4927507;29;20115;-85
2021/10/13 05:43:47;;;;;;;28.90;17.15;;;;;;;8.21;100.00;99842.81;4922706;29;20043;-86
2021/10/13 05:46:14;;;;;;;33.50;17.95;;;;;;;8.35;100.00;99840.41;4933010;29;20096;-85
2021/10/13 05:48:41;;;;;;;26.83;18.00;;;;;;;8.32;100.00;99835.38;4937490;29;20054;-85
2021/10/13 05:51:08;;;;;;;26.58;18.35;;;;;;;8.47;100.00;99848.56;4933730;29;20067;-86
2021/10/13 05:53:35;;;;;;;30.30;18.58;;;;;;;8.54;100.00;99842.16;4930507;29;20059;-87
2021/10/13 05:56:02;;;;;;;28.83;20.58;;;;;;;8.54;100.00;99848.22;4925562;29;20076;-88
2021/10/13 05:58:29;;;;;;;30.35;20.48;;;;;;;8.82;100.00;99854.66;4933440;29;20032;-85
2021/10/13 06:00:56;;;;;;;30.30;20.38;;;;;;;8.77;100.00;99857.47;4921813;29;20388;-85
2021/10/13 06:03:23;;;;;;;27.45;19.80;;;;;;;8.49;100.00;99857.97;4926349;29;20139;-84
2021/10/13 06:05:50;;;;;;;31.77;20.08;;;;;;;8.41;100.00;99857.47;4929461;29;20487;-87
2021/10/13 06:08:17;;;;;;;24.23;18.10;;;;;;;8.27;100.00;99871.09;4929287;29;20094;-82
2021/10/13 06:10:45;;;;;;;28.23;17.58;;;;;;;8.36;100.00;99867.25;4932843;29;20040;-86
2021/10/13 06:13:11;;;;;;;30.02;19.92;;;;;;;8.45;100.00;99871.19;4930924;29;20040;-92
2021/10/13 06:15:39;;;;;;;22.27;17.02;;;;;;;8.46;100.00;99872.84;4901982;29;20083;-87
2021/10/13 06:18:07;;;;;;;23.23;16.38;;;;;;;8.49;100.00;99873.56;4934215;29;20212;-84
2021/10/13 06:20:34;;;;;;;28.45;19.23;;;;;;;8.60;100.00;99886.88;4932632;29;20058;-83
2021/10/13 06:23:02;;;;;;;28.80;17.98;;;;;;;8.69;100.00;99890.81;4928074;29;20039;-85
2021/10/13 06:25:29;;;;;;;24.33;16.92;;;;;;;8.78;100.00;99895.53;4927448;29;20048;-84
2021/10/13 06:27:56;;;;;;;24.27;17.70;;;;;;;8.89;100.00;99898.50;4930122;29;20071;-82
2021/10/13 06:30:22;;;;;;;25.98;17.67;;;;;;;8.97;100.00;99903.31;4933957;29;20440;-84
2021/10/13 06:32:49;;;;;;;26.42;18.17;;;;;;;9.07;100.00;99911.50;4934800;29;20042;-87
2021/10/13 06:35:16;;;;;;;20.50;16.40;;;;;;;9.15;100.00;99914.56;4929632;29;20539;-84
2021/10/13 06:37:43;;;;;;;26.25;18.83;;;;;;;9.21;100.00;99914.25;4915230;29;20060;-87
2021/10/13 06:40:10;;;;;;;41.53;19.58;;;;;;;9.23;100.00;99919.38;4931909;29;20614;-86
2021/10/13 06:42:37;;;;;;;26.67;16.80;;;;;;;9.31;100.00;99930.25;4936512;29;20059;-86
2021/10/13 06:45:04;;;;;;;26.63;19.13;;;;;;;9.40;100.00;99935.84;4936131;29;20044;-86
2021/10/13 06:47:31;;;;;;;26.88;18.55;;;;;;;9.46;99.75;99937.28;4936308;29;20108;-88
2021/10/13 06:49:58;;;;;;;23.63;18.02;;;;;;;9.63;99.29;99934.66;4936618;29;20061;-89
2021/10/13 06:52:24;;;;;;;23.30;17.92;;;;;;;9.65;97.89;99934.59;4934930;29;20039;-86
2021/10/13 06:54:51;;;;;;;31.33;19.73;;;;;;;9.80;96.27;99943.38;4917151;29;20143;-88
2021/10/13 06:57:18;;;;;;;31.17;18.50;;;;;;;9.90;95.76;99950.63;4929339;29;20052;-86
2021/10/13 06:59:44;;;;;;;34.30;20.38;;;;;;;10.01;94.59;99952.66;4934829;29;20078;-88
2021/10/13 07:02:11;;;;;;;26.02;18.80;;;;;;;10.13;94.12;99949.44;4916272;29;20142;-87
2021/10/13 07:04:38;;;;;;;25.88;17.77;;;;;;;10.24;93.79;99948.91;4934433;29;20044;-83
2021/10/13 07:07:05;;;;;;;28.08;17.83;;;;;;;10.21;93.35;99952.47;4930176;29;20554;-85
2021/10/13 07:09:32;;;;;;;27.90;18.83;;;;;;;10.26;92.89;99961.84;4934831;29;20098;-87
2021/10/13 07:11:59;;;;;;;29.35;18.63;;;;;;;10.27;93.20;99979.16;4913148;29;20122;-82
2021/10/13 07:14:26;;;;;;;24.27;17.55;;;;;;;10.41;92.54;99971.44;4933507;29;20066;-82
2021/10/13 07:16:52;;;;;;;24.42;18.13;;;;;;;10.48;92.04;99972.78;4934541;29;20055;-83
2021/10/13 07:19:19;;;;;;;27.38;17.90;;;;;;;10.45;91.91;99979.03;4935558;29;20091;-83
2021/10/13 07:21:46;;;;;;;25.90;19.73;;;;;;;10.57;91.42;99985.31;4935551;29;20447;-86
2021/10/13 07:24:13;;;;;;;25.63;19.05;;;;;;;10.75;91.16;99986.09;4935928;29;20077;-88
2021/10/13 07:26:44;;;;;;;32.28;20.75;;;;;;;10.71;90.66;99989.81;4933865;29;20439;-89
2021/10/13 07:29:12;;;;;;;30.48;19.90;;;;;;;10.89;90.38;99986.19;4937073;29;20039;-83
2021/10/13 07:31:39;;;;;;;27.17;21.27;;;;;;;10.97;89.65;99978.78;4919234;29;20103;-94
2021/10/13 07:34:06;;;;;;;35.20;21.65;;;;;;;11.06;90.43;99982.63;4937490;29;20447;-91
2021/10/13 07:36:33;;;;;;;29.65;21.15;;;;;;;11.14;88.27;99985.66;4929605;29;20091;-90
2021/10/13 07:39:00;;;;;;;26.20;20.10;;;;;;;11.10;88.60;99981.53;4936202;29;20588;-93
2021/10/13 07:41:28;;;;;;;29.00;20.75;;;;;;;11.10;88.64;99983.31;4936424;29;20032;-90
2021/10/13 07:43:55;;;;;;;28.48;20.33;;;;;;;11.28;87.93;99990.06;4935792;29;20047;-87
2021/10/13 07:46:24;;;;;;;26.77;21.23;;;;;;;11.33;88.13;99993.25;4936105;29;20044;-87
2021/10/13 07:48:52;;;;;;;28.27;20.88;;;;;;;11.45;87.47;99992.59;4932946;29;20130;-89
2021/10/13 07:51:19;;;;;;;29.05;20.60;;;;;;;11.34;87.44;100001.94;4936512;29;20035;-88
2021/10/13 07:53:46;;;;;;;28.83;21.17;;;;;;;11.34;87.22;99994.94;4932108;29;20056;-90
2021/10/13 07:56:12;;;;;;;26.88;20.88;;;;;;;11.60;85.63;100001.28;4932946;29;20039;-87
2021/10/13 07:58:39;;;;;;;25.35;20.23;;;;;;;11.86;85.62;100001.56;4936196;29;20052;-90
2021/10/13 08:01:06;;;;;;;30.80;19.92;;;;;;;11.54;86.12;100002.47;4935314;29;20090;-87
2021/10/13 08:03:33;;;;;;;28.67;21.25;;;;;;;11.75;85.89;100000.38;4935047;29;20063;-89
2021/10/13 08:06:00;;;;;;;37.83;20.30;;;;;;;11.67;86.04;100004.41;4935868;29;20103;-91
2021/10/13 08:08:27;;;;;;;34.40;20.83;;;;;;;11.86;85.60;100001.56;4935135;29;20059;-87
2021/10/13 08:10:54;;;;;;;36.13;22.52;;;;;;;11.94;84.77;100010.63;4932008;29;20031;-89
2021/10/13 08:13:21;;;;;;;28.52;21.33;;;;;;;11.96;84.29;100018.38;4930784;29;20070;-89
2021/10/13 08:15:47;;;;;;;29.02;21.65;;;;;;;11.93;84.41;100014.19;4930628;29;20040;-93
2021/10/13 08:18:15;;;;;;;26.75;20.00;;;;;;;12.02;83.79;100011.00;4934203;29;20087;-90
2021/10/13 08:20:42;;;;;;;28.17;21.25;;;;;;;12.09;84.00;100013.25;4936426;29;20048;-91
2021/10/13 08:23:08;;;;;;;25.88;19.95;;;;;;;11.97;84.56;100012.22;4945691;29;20036;-86
2021/10/13 08:25:36;;;;;;;26.98;20.88;;;;;;;12.25;83.62;100017.47;4944017;29;20050;-82
2021/10/13 08:28:03;;;;;;;32.03;21.20;;;;;;;12.25;83.26;100021.84;4941717;29;20063;-89
2021/10/13 08:30:29;;;;;;;28.88;21.45;;;;;;;12.24;83.34;100022.78;4937242;29;20043;-94
2021/10/13 08:32:56;;;;;;;29.42;20.35;;;;;;;12.29;82.58;100025.94;4935034;29;20399;-91
2021/10/13 08:35:23;;;;;;;31.02;22.23;;;;;;;12.45;82.31;100018.84;4935068;29;20043;-88
2021/10/13 08:37:50;;;;;;;26.77;19.50;;;;;;;12.29;82.38;100012.88;4934646;29;20102;-91
2021/10/13 08:40:17;;;;;;;26.60;20.10;;;;;;;12.36;81.90;100013.34;4934675;29;20057;-86
2021/10/13 08:42:54;;;;;;;27.38;19.83;;;;;;;12.55;81.01;100006.91;4934201;29;20048;-86
2021/10/13 08:45:22;;;;;;;25.98;19.42;;;;;;;13.01;78.36;100009.25;4938691;29;20451;-86
2021/10/13 08:47:49;;;;;;;20.95;17.95;;;;;;;13.17;77.08;100003.88;4934430;29;20099;-88
2021/10/13 08:50:16;;;;;;;23.00;17.85;;;;;;;13.27;76.22;100009.41;4934344;29;20060;-83
2021/10/13 08:52:45;;;;;;;24.58;17.65;;;;;;;13.33;75.52;100007.22;4933418;29;20043;-83
2021/10/13 08:55:12;;;;;;;37.30;19.30;;;;;;;12.94;77.30;100010.56;4934555;29;20087;-82
2021/10/13 08:57:39;;;;;;;32.05;19.50;;;;;;;12.80;78.48;100005.38;4933396;29;20039;-81
2021/10/13 09:00:07;;;;;;;38.40;21.83;;;;;;;13.10;76.58;100008.69;4934022;29;20052;-83
2021/10/13 09:02:36;;;;;;;25.35;18.40;;;;;;;13.45;74.89;100010.81;4934011;29;20060;-84
2021/10/13 09:05:20;;;;;;;25.83;17.70;;;;;;;13.29;75.74;100002.28;4933992;29;20121;-81
2021/10/13 09:07:52;;;;;;;34.55;17.58;;;;;;;13.78;73.89;100010.34;4928287;29;20515;-81
2021/10/13 09:10:29;;;;;;;26.63;18.58;;;;;;;13.55;74.53;100011.03;4937399;29;20056;-80
2021/10/13 09:13:00;;;;;;;25.45;18.85;;;;;;;13.40;74.96;100009.44;4937628;29;20036;-81
2021/10/13 09:15:28;;;;;;;26.02;18.83;;;;;;;13.96;72.77;100017.94;4920376;29;20055;-84
2021/10/13 09:18:00;;;;;;;24.92;17.95;;;;;;;13.34;73.78;100010.66;4942274;29;20142;-82
2021/10/13 09:20:37;;;;;;;26.85;18.63;;;;;;;13.60;73.55;100017.66;4945294;29;20098;-82
2021/10/13 09:23:21;;;;;;;25.80;17.27;;;;;;;13.67;71.89;100012.00;4945599;29;20047;-84
2021/10/13 09:26:10;;;;;;;21.25;16.60;;;;;;;13.41;72.57;100022.41;4914396;29;20819;-83
2021/10/13 09:28:40;;;;;;;26.48;17.73;;;;;;;13.61;71.57;100023.72;4936873;29;20091;-85
2021/10/13 09:31:15;;;;;;;20.05;16.67;;;;;;;13.50;72.88;100026.22;4920981;29;20045;-85
2021/10/13 09:33:59;;;;;;;23.85;15.65;;;;;;;13.95;72.82;100024.91;4937448;29;20047;-84
2021/10/13 09:36:33;;;;;;;24.08;17.20;;;;;;;13.92;72.59;100026.94;4937319;29;20047;-83
2021/10/13 09:39:15;;;;;;;23.90;18.33;;;;;;;14.12;71.91;100029.03;4934282;29;20052;-85
2021/10/13 09:42:10;;;;;;;23.13;17.40;;;;;;;14.06;72.12;100025.06;4931215;29;20491;-89
2021/10/13 09:44:40;;;;;;;19.90;16.60;;;;;;;13.84;71.53;100022.19;4937192;29;20047;-93
2021/10/13 09:47:12;;;;;;;22.15;16.35;;;;;;;14.05;71.00;100022.53;4938687;29;20047;-93
2021/10/13 09:49:41;;;;;;;22.15;16.25;;;;;;;14.41;69.16;100014.75;4939356;29;20511;-90
2021/10/13 09:52:16;;;;;;;21.75;16.38;;;;;;;14.37;69.15;100017.69;4942195;29;20040;-92
2021/10/13 09:54:45;;;;;;;22.83;17.38;;;;;;;14.23;70.97;100018.66;4936009;29;20044;-86
2021/10/13 09:57:27;;;;;;;25.73;17.08;;;;;;;14.02;70.99;100020.97;4938245;29;20044;-85
2021/10/13 10:00:01;;;;;;;20.15;16.60;;;;;;;14.51;68.69;100012.38;4932439;29;20099;-85
2021/10/13 10:02:51;;;;;;;21.02;16.27;;;;;;;14.68;68.42;100006.78;4937448;29;20043;-91
2021/10/13 10:05:22;;;;;;;21.92;18.60;;;;;;;14.33;69.50;100016.25;4929913;29;20056;-93
2021/10/13 10:08:01;;;;;;;21.85;15.68;;;;;;;14.11;68.31;100022.97;4934570;29;20043;-87
2021/10/13 10:10:28;;;;;;;21.35;14.77;;;;;;;14.49;66.72;100022.13;4935141;29;20173;-91
2021/10/13 10:13:05;;;;;;;16.73;15.00;;;;;;;14.60;67.63;100014.34;4931362;29;20176;-87
2021/10/13 10:15:42;;;;;;;21.67;16.92;;;;;;;14.47;68.78;100017.91;4936593;29;20058;-89
2021/10/13 10:18:31;;;;;;;20.08;15.18;;;;;;;14.71;67.01;100010.13;4931103;29;20047;-89
2021/10/13 10:21:26;;;;;;;22.67;17.05;;;;;;;14.63;67.82;100015.91;4947511;29;20116;-90
2021/10/13 10:23:55;;;;;;;21.15;15.65;;;;;;;14.54;68.96;100020.03;4939612;29;20032;-88
2021/10/13 10:26:26;;;;;;;23.52;16.30;;;;;;;15.10;66.63;100030.91;4954721;29;20036;-86
2021/10/13 10:29:02;;;;;;;19.30;16.95;;;;;;;15.45;65.62;100023.09;4938260;29;20047;-87
2021/10/13 10:31:28;;;;;;;21.50;17.55;;;;;;;14.90;66.32;100028.84;4934740;29;20098;-88
2021/10/13 10:34:12;;;;;;;19.60;16.45;;;;;;;14.52;67.81;100037.66;4938731;29;20047;-88
2021/10/13 10:36:38;;;;;;;19.38;13.73;;;;;;;14.89;65.65;100022.78;4935725;29;20411;-91
2021/10/13 10:39:08;;;;;;;17.73;14.25;;;;;;;15.13;64.71;100022.81;4937491;29;20044;-87
2021/10/13 10:41:42;;;;;;;18.67;14.77;;;;;;;14.57;65.59;100025.06;4937015;29;20458;-87
2021/10/13 10:44:47;;;;;;;16.40;13.18;;;;;;;14.81;64.18;100013.78;4938548;29;20044;-92
2021/10/13 10:47:17;;;;;;;16.50;12.45;;;;;;;15.20;61.48;100024.03;4863375;29;20463;-86
2021/10/13 10:49:51;;;;;;;17.48;14.18;;;;;;;14.66;63.85;100024.41;4905651;29;20036;-88
2021/10/13 10:52:23;;;;;;;18.45;14.63;;;;;;;15.49;61.10;100020.22;4940551;29;20136;-87
2021/10/13 10:55:07;;;;;;;18.67;16.40;;;;;;;15.58;60.91;100028.25;4941758;29;20095;-89
2021/10/13 10:58:12;;;;;;;24.77;14.10;;;;;;;15.19;60.41;100030.25;4940015;29;20071;-90
2021/10/13 11:00:39;;;;;;;24.48;16.25;;;;;;;15.43;62.16;100034.63;4943593;29;20043;-84
2021/10/13 11:03:18;;;;;;;17.20;15.35;;;;;;;15.76;61.40;100035.75;4937361;29;20059;-89
2021/10/13 11:05:54;;;;;;;19.63;15.70;;;;;;;15.93;60.74;100037.97;4938588;29;20055;-93
2021/10/13 11:08:21;;;;;;;19.88;16.83;;;;;;;15.50;61.93;100037.66;4936186;29;20036;-86
2021/10/13 11:10:48;;;;;;;25.08;16.85;;;;;;;15.66;61.59;100036.47;4936756;29;20114;-90
2021/10/13 11:13:22;;;;;;;25.10;16.55;;;;;;;15.25;61.65;100036.00;4937202;29;20048;-92
2021/10/13 11:15:48;;;;;;;16.70;14.40;;;;;;;15.50;60.68;100033.25;4935172;29;20055;-86
2021/10/13 11:18:16;;;;;;;22.23;14.57;;;;;;;15.72;59.78;100032.53;4923996;29;20050;-86
2021/10/13 11:20:45;;;;;;;18.33;14.85;;;;;;;16.10;59.15;100029.63;4935197;29;20044;-86
2021/10/13 11:23:13;;;;;;;17.58;12.50;;;;;;;15.34;60.12;100032.69;4935094;29;20626;-88
2021/10/13 11:25:40;;;;;;;16.15;13.88;;;;;;;15.97;58.61;100021.81;4922379;29;20048;-85
2021/10/13 11:28:12;;;;;;;19.40;13.57;;;;;;;16.45;57.74;100020.78;4902906;29;20107;-87
2021/10/13 11:30:45;;;;;;;15.63;13.38;;;;;;;16.28;58.13;100026.53;4933755;29;20433;-83
2021/10/13 11:33:14;;;;;;;16.10;12.25;;;;;;;15.94;57.52;100029.13;4932475;29;20152;-85